sensor_id;sensor_type;location;lat;lon;timestamp;temperature;humidity
18777;DHT22;9517;51.174;4.160;2022-09-21T00:00:50;9.20;99.90
18777;DHT22;9517;51.174;4.160;2022-09-21T00:03:18;9.20;99.90
18777;DHT22;9517;51.174;4.160;2022-09-21T00:05:50;9.20;99.90
18777;DHT22;9517;51.174;4.160;2022-09-21T00:08:17;9.20;99.90
18777;DHT22;9517;51.174;4.160;2022-09-21T00:10:49;9.10;99.90
18777;DHT22;9517;51.174;4.160;2022-09-21T00:13:16;9.10;99.90
18777;DHT22;9517;51.174;4.160;2022-09-21T00:15:44;9.20;99.90
18777;DHT22;9517;51.174;4.160;2022-09-21T00:18:11;9.20;99.90
18777;DHT22;9517;51.174;4.160;2022-09-21T00:20:40;9.20;99.90
18777;DHT22;9517;51.174;4.160;2022-09-21T00:23:09;9.20;99.90
18777;DHT22;9517;51.174;4.160;2022-09-21T00:25:37;9.10;99.90
18777;DHT22;9517;51.174;4.160;2022-09-21T00:28:04;9.10;99.90
18777;DHT22;9517;51.174;4.160;2022-09-21T00:30:32;9.10;99.90
18777;DHT22;9517;51.174;4.160;2022-09-21T00:32:59;9.00;99.90
18777;DHT22;9517;51.174;4.160;2022-09-21T00:35:26;9.00;99.90
18777;DHT22;9517;51.174;4.160;2022-09-21T00:37:54;8.90;99.90
18777;DHT22;9517;51.174;4.160;2022-09-21T00:40:24;8.90;99.90
18777;DHT22;9517;51.174;4.160;2022-09-21T00:42:52;8.90;99.90
18777;DHT22;9517;51.174;4.160;2022-09-21T00:45:27;8.90;99.90
18777;DHT22;9517;51.174;4.160;2022-09-21T00:47:55;8.90;99.90
18777;DHT22;9517;51.174;4.160;2022-09-21T00:50:23;8.90;99.90
18777;DHT22;9517;51.174;4.160;2022-09-21T00:52:54;8.90;99.90
18777;DHT22;9517;51.174;4.160;2022-09-21T00:55:30;8.90;99.90
18777;DHT22;9517;51.174;4.160;2022-09-21T00:58:01;8.90;99.90
18777;DHT22;9517;51.174;4.160;2022-09-21T01:00:29;8.80;99.90
18777;DHT22;9517;51.174;4.160;2022-09-21T01:02:56;8.80;99.90
18777;DHT22;9517;51.174;4.160;2022-09-21T01:05:26;8.90;99.90
18777;DHT22;9517;51.174;4.160;2022-09-21T01:07:55;8.90;99.90
18777;DHT22;9517;51.174;4.160;2022-09-21T01:10:25;8.90;99.90
18777;DHT22;9517;51.174;4.160;2022-09-21T01:13:05;8.80;99.90
18777;DHT22;9517;51.174;4.160;2022-09-21T01:15:41;8.70;99.90
18777;DHT22;9517;51.174;4.160;2022-09-21T01:18:14;8.80;99.90
18777;DHT22;9517;51.174;4.160;2022-09-21T01:21:16;8.70;99.90
18777;DHT22;9517;51.174;4.160;2022-09-21T01:24:14;8.80;99.90
18777;DHT22;9517;51.174;4.160;2022-09-21T01:29:42;8.60;99.90
18777;DHT22;9517;51.174;4.160;2022-09-21T01:32:13;8.70;99.90
18777;DHT22;9517;51.174;4.160;2022-09-21T01:34:47;8.70;99.90
18777;DHT22;9517;51.174;4.160;2022-09-21T01:37:19;8.80;99.90
18777;DHT22;9517;51.174;4.160;2022-09-21T01:39:52;8.80;99.90
18777;DHT22;9517;51.174;4.160;2022-09-21T01:42:22;8.70;99.90
18777;DHT22;9517;51.174;4.160;2022-09-21T01:44:55;8.70;99.90
18777;DHT22;9517;51.174;4.160;2022-09-21T01:47:27;8.60;99.90
18777;DHT22;9517;51.174;4.160;2022-09-21T01:50:00;8.60;99.90
18777;DHT22;9517;51.174;4.160;2022-09-21T01:52:33;8.60;99.90
18777;DHT22;9517;51.174;4.160;2022-09-21T01:55:06;8.60;99.90
18777;DHT22;9517;51.174;4.160;2022-09-21T01:57:39;8.60;99.90
18777;DHT22;9517;51.174;4.160;2022-09-21T02:00:10;8.50;99.90
18777;DHT22;9517;51.174;4.160;2022-09-21T02:02:41;8.60;99.90
18777;DHT22;9517;51.174;4.160;2022-09-21T02:05:10;8.50;99.90
18777;DHT22;9517;51.174;4.160;2022-09-21T02:07:38;8.50;99.90
18777;DHT22;9517;51.174;4.160;2022-09-21T02:10:14;8.60;99.90
18777;DHT22;9517;51.174;4.160;2022-09-21T02:12:43;8.60;99.90
18777;DHT22;9517;51.174;4.160;2022-09-21T02:15:12;8.70;99.90
18777;DHT22;9517;51.174;4.160;2022-09-21T02:17:45;8.70;99.90
18777;DHT22;9517;51.174;4.160;2022-09-21T02:20:19;8.70;99.90
18777;DHT22;9517;51.174;4.160;2022-09-21T02:22:59;8.70;99.90
18777;DHT22;9517;51.174;4.160;2022-09-21T02:25:38;8.70;99.90
18777;DHT22;9517;51.174;4.160;2022-09-21T02:28:10;8.70;99.90
18777;DHT22;9517;51.174;4.160;2022-09-21T02:30:45;8.70;99.90
18777;DHT22;9517;51.174;4.160;2022-09-21T02:33:25;8.70;99.90
18777;DHT22;9517;51.174;4.160;2022-09-21T02:36:04;8.70;99.90
18777;DHT22;9517;51.174;4.160;2022-09-21T02:38:36;8.70;99.90
18777;DHT22;9517;51.174;4.160;2022-09-21T02:41:09;8.70;99.90
18777;DHT22;9517;51.174;4.160;2022-09-21T02:43:44;8.70;99.90
18777;DHT22;9517;51.174;4.160;2022-09-21T02:46:18;8.60;99.90
18777;DHT22;9517;51.174;4.160;2022-09-21T02:48:49;8.60;99.90
18777;DHT22;9517;51.174;4.160;2022-09-21T02:51:20;8.60;99.90
18777;DHT22;9517;51.174;4.160;2022-09-21T02:53:49;8.60;99.90
18777;DHT22;9517;51.174;4.160;2022-09-21T02:56:19;8.60;99.90
18777;DHT22;9517;51.174;4.160;2022-09-21T02:58:50;8.60;99.90
18777;DHT22;9517;51.174;4.160;2022-09-21T03:01:22;8.50;99.90
18777;DHT22;9517;51.174;4.160;2022-09-21T03:03:51;8.60;99.90
18777;DHT22;9517;51.174;4.160;2022-09-21T03:06:18;8.60;99.90
18777;DHT22;9517;51.174;4.160;2022-09-21T03:08:46;8.60;99.90
18777;DHT22;9517;51.174;4.160;2022-09-21T03:11:15;8.70;99.90
18777;DHT22;9517;51.174;4.160;2022-09-21T03:13:43;8.70;99.90
18777;DHT22;9517;51.174;4.160;2022-09-21T03:16:11;8.80;99.90
18777;DHT22;9517;51.174;4.160;2022-09-21T03:18:40;8.90;99.90
18777;DHT22;9517;51.174;4.160;2022-09-21T03:21:08;8.90;99.90
18777;DHT22;9517;51.174;4.160;2022-09-21T03:23:39;8.90;99.90
18777;DHT22;9517;51.174;4.160;2022-09-21T03:26:06;8.90;99.90
18777;DHT22;9517;51.174;4.160;2022-09-21T03:28:34;8.90;99.90
18777;DHT22;9517;51.174;4.160;2022-09-21T03:31:02;8.90;99.90
18777;DHT22;9517;51.174;4.160;2022-09-21T03:33:31;8.90;99.90
18777;DHT22;9517;51.174;4.160;2022-09-21T03:36:00;8.90;99.90
18777;DHT22;9517;51.174;4.160;2022-09-21T03:38:27;8.80;99.90
18777;DHT22;9517;51.174;4.160;2022-09-21T03:40:54;8.80;99.90
18777;DHT22;9517;51.174;4.160;2022-09-21T03:43:22;8.80;99.90
18777;DHT22;9517;51.174;4.160;2022-09-21T03:45:50;8.80;99.90
18777;DHT22;9517;51.174;4.160;2022-09-21T03:48:17;8.90;99.90
18777;DHT22;9517;51.174;4.160;2022-09-21T03:50:44;8.90;99.90
18777;DHT22;9517;51.174;4.160;2022-09-21T03:53:12;8.90;99.90
18777;DHT22;9517;51.174;4.160;2022-09-21T03:55:40;8.90;99.90
18777;DHT22;9517;51.174;4.160;2022-09-21T03:58:09;8.90;99.90
18777;DHT22;9517;51.174;4.160;2022-09-21T04:00:36;9.00;99.90
18777;DHT22;9517;51.174;4.160;2022-09-21T04:03:04;9.00;99.90
18777;DHT22;9517;51.174;4.160;2022-09-21T04:05:31;9.10;99.90
18777;DHT22;9517;51.174;4.160;2022-09-21T04:07:58;9.00;99.90
18777;DHT22;9517;51.174;4.160;2022-09-21T04:10:28;9.00;99.90
18777;DHT22;9517;51.174;4.160;2022-09-21T04:12:58;9.10;99.90
18777;DHT22;9517;51.174;4.160;2022-09-21T04:15:27;9.10;99.90
18777;DHT22;9517;51.174;4.160;2022-09-21T04:17:56;9.10;99.90
18777;DHT22;9517;51.174;4.160;2022-09-21T04:20:23;9.00;99.90
18777;DHT22;9517;51.174;4.160;2022-09-21T04:22:51;8.80;99.90
18777;DHT22;9517;51.174;4.160;2022-09-21T04:25:18;8.80;99.90
18777;DHT22;9517;51.174;4.160;2022-09-21T04:27:49;8.90;99.90
18777;DHT22;9517;51.174;4.160;2022-09-21T04:30:17;8.90;99.90
18777;DHT22;9517;51.174;4.160;2022-09-21T04:32:44;9.00;99.90
18777;DHT22;9517;51.174;4.160;2022-09-21T04:35:11;9.00;99.90
18777;DHT22;9517;51.174;4.160;2022-09-21T04:37:39;9.00;99.90
18777;DHT22;9517;51.174;4.160;2022-09-21T04:40:07;9.00;99.90
18777;DHT22;9517;51.174;4.160;2022-09-21T04:42:35;9.00;99.90
18777;DHT22;9517;51.174;4.160;2022-09-21T04:45:05;9.00;99.90
18777;DHT22;9517;51.174;4.160;2022-09-21T04:47:33;9.00;99.90
18777;DHT22;9517;51.174;4.160;2022-09-21T04:50:00;9.00;99.90
18777;DHT22;9517;51.174;4.160;2022-09-21T04:52:27;9.00;99.90
18777;DHT22;9517;51.174;4.160;2022-09-21T04:54:54;9.10;99.90
18777;DHT22;9517;51.174;4.160;2022-09-21T04:57:21;9.10;99.90
18777;DHT22;9517;51.174;4.160;2022-09-21T04:59:48;9.00;99.90
18777;DHT22;9517;51.174;4.160;2022-09-21T05:02:16;9.00;99.90
18777;DHT22;9517;51.174;4.160;2022-09-21T05:04:43;9.10;99.90
18777;DHT22;9517;51.174;4.160;2022-09-21T05:07:11;9.00;99.90
18777;DHT22;9517;51.174;4.160;2022-09-21T05:09:38;9.00;99.90
18777;DHT22;9517;51.174;4.160;2022-09-21T05:12:22;9.00;99.90
18777;DHT22;9517;51.174;4.160;2022-09-21T05:14:50;8.90;99.90
18777;DHT22;9517;51.174;4.160;2022-09-21T05:17:21;8.90;99.90
18777;DHT22;9517;51.174;4.160;2022-09-21T05:19:52;8.90;99.90
18777;DHT22;9517;51.174;4.160;2022-09-21T05:22:19;8.80;99.90
18777;DHT22;9517;51.174;4.160;2022-09-21T05:24:47;8.80;99.90
18777;DHT22;9517;51.174;4.160;2022-09-21T05:27:16;8.70;99.90
18777;DHT22;9517;51.174;4.160;2022-09-21T05:29:43;8.70;99.90
18777;DHT22;9517;51.174;4.160;2022-09-21T05:32:17;8.80;99.90
18777;DHT22;9517;51.174;4.160;2022-09-21T05:35:02;8.70;99.90
18777;DHT22;9517;51.174;4.160;2022-09-21T05:37:47;8.60;99.90
18777;DHT22;9517;51.174;4.160;2022-09-21T05:40:18;8.60;99.90
18777;DHT22;9517;51.174;4.160;2022-09-21T05:42:46;8.60;99.90
18777;DHT22;9517;51.174;4.160;2022-09-21T05:45:18;8.60;99.90
18777;DHT22;9517;51.174;4.160;2022-09-21T05:47:54;8.70;99.90
18777;DHT22;9517;51.174;4.160;2022-09-21T05:50:45;8.70;99.90
18777;DHT22;9517;51.174;4.160;2022-09-21T05:53:37;8.70;99.90
18777;DHT22;9517;51.174;4.160;2022-09-21T05:56:10;8.80;99.90
18777;DHT22;9517;51.174;4.160;2022-09-21T05:58:53;8.80;99.90
18777;DHT22;9517;51.174;4.160;2022-09-21T06:01:34;8.80;99.90
18777;DHT22;9517;51.174;4.160;2022-09-21T06:04:15;8.80;99.90
18777;DHT22;9517;51.174;4.160;2022-09-21T06:06:46;8.70;99.90
18777;DHT22;9517;51.174;4.160;2022-09-21T06:09:15;8.80;99.90
18777;DHT22;9517;51.174;4.160;2022-09-21T06:11:42;8.80;99.90
18777;DHT22;9517;51.174;4.160;2022-09-21T06:14:15;8.90;99.90
18777;DHT22;9517;51.174;4.160;2022-09-21T06:16:49;9.00;99.90
18777;DHT22;9517;51.174;4.160;2022-09-21T06:19:16;9.10;99.90
18777;DHT22;9517;51.174;4.160;2022-09-21T06:21:45;9.20;99.90
18777;DHT22;9517;51.174;4.160;2022-09-21T06:24:12;9.30;99.90
18777;DHT22;9517;51.174;4.160;2022-09-21T06:26:39;9.40;99.90
18777;DHT22;9517;51.174;4.160;2022-09-21T06:29:07;9.50;99.90
18777;DHT22;9517;51.174;4.160;2022-09-21T06:31:38;9.50;99.90
18777;DHT22;9517;51.174;4.160;2022-09-21T06:34:05;9.60;99.90
18777;DHT22;9517;51.174;4.160;2022-09-21T06:36:33;9.70;99.90
18777;DHT22;9517;51.174;4.160;2022-09-21T06:39:01;9.90;99.90
18777;DHT22;9517;51.174;4.160;2022-09-21T06:41:28;10.00;99.90
18777;DHT22;9517;51.174;4.160;2022-09-21T06:43:55;10.20;99.90
18777;DHT22;9517;51.174;4.160;2022-09-21T06:46:22;10.30;99.90
18777;DHT22;9517;51.174;4.160;2022-09-21T06:48:49;10.50;99.90
18777;DHT22;9517;51.174;4.160;2022-09-21T06:51:18;10.70;99.90
18777;DHT22;9517;51.174;4.160;2022-09-21T06:53:46;10.80;99.90
18777;DHT22;9517;51.174;4.160;2022-09-21T06:56:18;11.00;99.90
18777;DHT22;9517;51.174;4.160;2022-09-21T06:58:45;11.20;99.90
18777;DHT22;9517;51.174;4.160;2022-09-21T07:01:14;11.40;99.90
18777;DHT22;9517;51.174;4.160;2022-09-21T07:03:42;11.60;99.90
18777;DHT22;9517;51.174;4.160;2022-09-21T07:06:15;11.80;99.90
18777;DHT22;9517;51.174;4.160;2022-09-21T07:08:43;11.90;99.90
18777;DHT22;9517;51.174;4.160;2022-09-21T07:11:11;12.00;99.90
18777;DHT22;9517;51.174;4.160;2022-09-21T07:13:40;12.20;99.90
18777;DHT22;9517;51.174;4.160;2022-09-21T07:16:08;12.40;99.90
18777;DHT22;9517;51.174;4.160;2022-09-21T07:18:38;12.70;99.90
18777;DHT22;9517;51.174;4.160;2022-09-21T07:21:08;13.00;99.90
18777;DHT22;9517;51.174;4.160;2022-09-21T07:23:36;13.20;99.90
18777;DHT22;9517;51.174;4.160;2022-09-21T07:26:06;13.20;99.90
18777;DHT22;9517;51.174;4.160;2022-09-21T07:28:34;13.30;99.90
18777;DHT22;9517;51.174;4.160;2022-09-21T07:31:07;13.50;99.90
18777;DHT22;9517;51.174;4.160;2022-09-21T07:33:38;13.50;99.90
18777;DHT22;9517;51.174;4.160;2022-09-21T07:36:06;13.50;99.90
18777;DHT22;9517;51.174;4.160;2022-09-21T07:38:38;13.80;99.90
18777;DHT22;9517;51.174;4.160;2022-09-21T07:41:06;13.80;99.90
18777;DHT22;9517;51.174;4.160;2022-09-21T07:43:36;13.90;99.90
18777;DHT22;9517;51.174;4.160;2022-09-21T07:46:07;13.80;99.90
18777;DHT22;9517;51.174;4.160;2022-09-21T07:48:39;14.00;99.90
18777;DHT22;9517;51.174;4.160;2022-09-21T07:51:08;14.00;99.90
18777;DHT22;9517;51.174;4.160;2022-09-21T07:53:37;14.10;99.90
18777;DHT22;9517;51.174;4.160;2022-09-21T07:56:06;14.20;99.90
18777;DHT22;9517;51.174;4.160;2022-09-21T07:58:35;14.30;99.90
18777;DHT22;9517;51.174;4.160;2022-09-21T08:01:22;14.50;99.90
18777;DHT22;9517;51.174;4.160;2022-09-21T08:03:49;14.60;99.90
18777;DHT22;9517;51.174;4.160;2022-09-21T08:06:17;14.60;99.90
18777;DHT22;9517;51.174;4.160;2022-09-21T08:08:44;14.90;99.90
18777;DHT22;9517;51.174;4.160;2022-09-21T08:11:16;15.30;99.90
18777;DHT22;9517;51.174;4.160;2022-09-21T08:13:44;15.20;99.90
18777;DHT22;9517;51.174;4.160;2022-09-21T08:16:11;15.10;99.90
18777;DHT22;9517;51.174;4.160;2022-09-21T08:18:40;15.10;99.90
18777;DHT22;9517;51.174;4.160;2022-09-21T08:21:12;15.30;99.90
18777;DHT22;9517;51.174;4.160;2022-09-21T08:23:39;15.40;99.90
18777;DHT22;9517;51.174;4.160;2022-09-21T08:26:12;15.50;99.90
18777;DHT22;9517;51.174;4.160;2022-09-21T08:28:43;15.50;99.90
18777;DHT22;9517;51.174;4.160;2022-09-21T08:31:12;15.70;99.90
18777;DHT22;9517;51.174;4.160;2022-09-21T08:33:41;15.80;99.90
18777;DHT22;9517;51.174;4.160;2022-09-21T08:36:13;15.90;99.90
18777;DHT22;9517;51.174;4.160;2022-09-21T08:38:42;15.90;99.90
18777;DHT22;9517;51.174;4.160;2022-09-21T08:41:17;16.00;99.90
18777;DHT22;9517;51.174;4.160;2022-09-21T08:43:48;15.90;99.90
18777;DHT22;9517;51.174;4.160;2022-09-21T08:46:20;16.00;99.90
18777;DHT22;9517;51.174;4.160;2022-09-21T08:48:54;16.30;99.90
18777;DHT22;9517;51.174;4.160;2022-09-21T08:51:28;16.80;99.90
18777;DHT22;9517;51.174;4.160;2022-09-21T08:53:59;16.90;99.90
18777;DHT22;9517;51.174;4.160;2022-09-21T08:56:29;17.00;99.90
18777;DHT22;9517;51.174;4.160;2022-09-21T08:58:58;17.00;99.90
18777;DHT22;9517;51.174;4.160;2022-09-21T09:01:32;17.00;99.90
18777;DHT22;9517;51.174;4.160;2022-09-21T09:04:20;17.10;99.90
18777;DHT22;9517;51.174;4.160;2022-09-21T09:06:59;17.10;99.90
18777;DHT22;9517;51.174;4.160;2022-09-21T09:09:44;17.30;99.90
18777;DHT22;9517;51.174;4.160;2022-09-21T09:12:29;17.50;99.90
18777;DHT22;9517;51.174;4.160;2022-09-21T09:15:27;17.40;99.90
18777;DHT22;9517;51.174;4.160;2022-09-21T09:18:06;17.40;99.90
18777;DHT22;9517;51.174;4.160;2022-09-21T09:20:38;17.60;99.90
18777;DHT22;9517;51.174;4.160;2022-09-21T09:23:11;17.70;99.90
18777;DHT22;9517;51.174;4.160;2022-09-21T09:25:42;18.30;99.90
18777;DHT22;9517;51.174;4.160;2022-09-21T09:28:22;18.60;99.90
18777;DHT22;9517;51.174;4.160;2022-09-21T09:30:58;18.70;99.90
18777;DHT22;9517;51.174;4.160;2022-09-21T09:33:29;18.50;99.90
18777;DHT22;9517;51.174;4.160;2022-09-21T09:36:05;18.50;99.90
18777;DHT22;9517;51.174;4.160;2022-09-21T09:38:37;18.80;99.90
18777;DHT22;9517;51.174;4.160;2022-09-21T09:41:23;18.60;99.90
18777;DHT22;9517;51.174;4.160;2022-09-21T09:44:03;18.50;99.90
18777;DHT22;9517;51.174;4.160;2022-09-21T09:46:35;18.80;99.90
18777;DHT22;9517;51.174;4.160;2022-09-21T09:49:21;19.20;99.90
18777;DHT22;9517;51.174;4.160;2022-09-21T09:51:52;19.70;99.90
18777;DHT22;9517;51.174;4.160;2022-09-21T09:54:21;20.10;99.90
18777;DHT22;9517;51.174;4.160;2022-09-21T09:56:50;20.60;99.90
18777;DHT22;9517;51.174;4.160;2022-09-21T09:59:25;20.80;99.90
18777;DHT22;9517;51.174;4.160;2022-09-21T10:02:00;21.10;99.90
18777;DHT22;9517;51.174;4.160;2022-09-21T10:04:28;21.80;99.90
18777;DHT22;9517;51.174;4.160;2022-09-21T10:06:56;22.00;99.90
18777;DHT22;9517;51.174;4.160;2022-09-21T10:09:27;22.30;99.90
18777;DHT22;9517;51.174;4.160;2022-09-21T10:11:59;22.60;99.90
18777;DHT22;9517;51.174;4.160;2022-09-21T10:14:32;22.60;99.90
18777;DHT22;9517;51.174;4.160;2022-09-21T10:17:05;22.80;99.90
18777;DHT22;9517;51.174;4.160;2022-09-21T10:19:33;22.20;99.90
18777;DHT22;9517;51.174;4.160;2022-09-21T10:22:04;21.40;99.90
18777;DHT22;9517;51.174;4.160;2022-09-21T10:24:33;22.00;99.90
18777;DHT22;9517;51.174;4.160;2022-09-21T10:27:05;21.90;99.90
18777;DHT22;9517;51.174;4.160;2022-09-21T10:29:40;21.80;99.90
18777;DHT22;9517;51.174;4.160;2022-09-21T10:32:21;22.00;99.90
18777;DHT22;9517;51.174;4.160;2022-09-21T10:35:15;22.20;99.90
18777;DHT22;9517;51.174;4.160;2022-09-21T10:38:08;22.60;99.90
18777;DHT22;9517;51.174;4.160;2022-09-21T10:40:37;22.30;99.90
18777;DHT22;9517;51.174;4.160;2022-09-21T10:43:05;22.00;99.90
18777;DHT22;9517;51.174;4.160;2022-09-21T10:45:52;21.80;99.90
18777;DHT22;9517;51.174;4.160;2022-09-21T10:48:22;21.50;99.90
18777;DHT22;9517;51.174;4.160;2022-09-21T10:50:50;20.90;99.90
18777;DHT22;9517;51.174;4.160;2022-09-21T10:53:23;20.30;99.90
18777;DHT22;9517;51.174;4.160;2022-09-21T10:55:57;20.00;99.90
18777;DHT22;9517;51.174;4.160;2022-09-21T10:58:24;19.50;99.90
18777;DHT22;9517;51.174;4.160;2022-09-21T11:00:52;19.20;99.90
18777;DHT22;9517;51.174;4.160;2022-09-21T11:03:32;18.90;99.90
18777;DHT22;9517;51.174;4.160;2022-09-21T11:06:08;18.80;99.90
18777;DHT22;9517;51.174;4.160;2022-09-21T11:08:44;18.80;99.90
18777;DHT22;9517;51.174;4.160;2022-09-21T11:11:28;18.80;99.90
18777;DHT22;9517;51.174;4.160;2022-09-21T11:13:59;18.80;99.90
18777;DHT22;9517;51.174;4.160;2022-09-21T11:16:35;18.70;99.90
18777;DHT22;9517;51.174;4.160;2022-09-21T11:19:11;18.80;99.90
18777;DHT22;9517;51.174;4.160;2022-09-21T11:21:43;20.10;99.90
18777;DHT22;9517;51.174;4.160;2022-09-21T11:24:22;20.70;99.90
18777;DHT22;9517;51.174;4.160;2022-09-21T11:26:54;20.90;99.90
18777;DHT22;9517;51.174;4.160;2022-09-21T11:29:28;20.90;99.90
18777;DHT22;9517;51.174;4.160;2022-09-21T11:32:10;21.40;99.90
18777;DHT22;9517;51.174;4.160;2022-09-21T11:37:58;22.00;99.90
18777;DHT22;9517;51.174;4.160;2022-09-21T11:43:43;23.10;99.90
18777;DHT22;9517;51.174;4.160;2022-09-21T11:46:20;22.40;99.90
18777;DHT22;9517;51.174;4.160;2022-09-21T11:49:02;21.90;99.90
18777;DHT22;9517;51.174;4.160;2022-09-21T11:51:50;21.90;99.90
18777;DHT22;9517;51.174;4.160;2022-09-21T11:54:49;21.80;99.90
18777;DHT22;9517;51.174;4.160;2022-09-21T11:57:27;21.20;99.90
18777;DHT22;9517;51.174;4.160;2022-09-21T12:00:09;21.00;99.90
18777;DHT22;9517;51.174;4.160;2022-09-21T12:03:17;21.80;99.90
18777;DHT22;9517;51.174;4.160;2022-09-21T12:05:56;24.00;99.90
18777;DHT22;9517;51.174;4.160;2022-09-21T12:08:41;26.00;99.90
18777;DHT22;9517;51.174;4.160;2022-09-21T12:11:18;27.40;99.90
18777;DHT22;9517;51.174;4.160;2022-09-21T12:13:56;26.00;99.90
18777;DHT22;9517;51.174;4.160;2022-09-21T12:16:34;25.10;99.90
18777;DHT22;9517;51.174;4.160;2022-09-21T12:19:07;24.60;99.90
18777;DHT22;9517;51.174;4.160;2022-09-21T12:21:38;24.30;99.90
18777;DHT22;9517;51.174;4.160;2022-09-21T12:24:14;23.50;99.90
18777;DHT22;9517;51.174;4.160;2022-09-21T12:26:45;23.20;99.90
18777;DHT22;9517;51.174;4.160;2022-09-21T12:29:21;23.20;99.90
18777;DHT22;9517;51.174;4.160;2022-09-21T12:31:57;22.80;99.90
18777;DHT22;9517;51.174;4.160;2022-09-21T12:34:33;22.30;99.90
18777;DHT22;9517;51.174;4.160;2022-09-21T12:37:07;21.80;99.90
18777;DHT22;9517;51.174;4.160;2022-09-21T12:39:40;21.80;99.90
18777;DHT22;9517;51.174;4.160;2022-09-21T12:42:22;23.30;99.90
18777;DHT22;9517;51.174;4.160;2022-09-21T12:44:53;25.40;99.90
18777;DHT22;9517;51.174;4.160;2022-09-21T12:47:26;26.60;99.90
18777;DHT22;9517;51.174;4.160;2022-09-21T12:50:00;26.10;99.90
18777;DHT22;9517;51.174;4.160;2022-09-21T12:52:28;25.90;99.90
18777;DHT22;9517;51.174;4.160;2022-09-21T12:55:02;25.10;99.90
18777;DHT22;9517;51.174;4.160;2022-09-21T12:57:41;24.30;99.90
18777;DHT22;9517;51.174;4.160;2022-09-21T13:00:15;23.70;99.90
18777;DHT22;9517;51.174;4.160;2022-09-21T13:02:50;23.30;99.90
18777;DHT22;9517;51.174;4.160;2022-09-21T13:05:30;22.90;99.90
18777;DHT22;9517;51.174;4.160;2022-09-21T13:08:03;23.20;99.90
18777;DHT22;9517;51.174;4.160;2022-09-21T13:10:42;22.60;99.90
18777;DHT22;9517;51.174;4.160;2022-09-21T13:13:31;22.70;99.90
18777;DHT22;9517;51.174;4.160;2022-09-21T13:16:04;22.60;99.90
18777;DHT22;9517;51.174;4.160;2022-09-21T13:18:39;22.50;99.90
18777;DHT22;9517;51.174;4.160;2022-09-21T13:21:18;22.30;99.90
18777;DHT22;9517;51.174;4.160;2022-09-21T13:23:51;21.80;99.90
18777;DHT22;9517;51.174;4.160;2022-09-21T13:26:30;22.60;99.90
18777;DHT22;9517;51.174;4.160;2022-09-21T13:31:55;25.60;99.90
18777;DHT22;9517;51.174;4.160;2022-09-21T13:34:29;26.90;99.90
18777;DHT22;9517;51.174;4.160;2022-09-21T13:37:26;29.00;97.00
18777;DHT22;9517;51.174;4.160;2022-09-21T13:43:44;29.30;95.70
18777;DHT22;9517;51.174;4.160;2022-09-21T13:46:47;29.40;94.10
18777;DHT22;9517;51.174;4.160;2022-09-21T13:49:19;29.60;91.60
18777;DHT22;9517;51.174;4.160;2022-09-21T13:51:53;29.80;90.00
18777;DHT22;9517;51.174;4.160;2022-09-21T13:54:23;29.20;91.60
18777;DHT22;9517;51.174;4.160;2022-09-21T13:57:01;29.90;92.60
18777;DHT22;9517;51.174;4.160;2022-09-21T13:59:32;30.60;89.80
18777;DHT22;9517;51.174;4.160;2022-09-21T14:02:01;30.70;90.10
18777;DHT22;9517;51.174;4.160;2022-09-21T14:04:32;29.70;89.30
18777;DHT22;9517;51.174;4.160;2022-09-21T14:07:05;28.10;87.20
18777;DHT22;9517;51.174;4.160;2022-09-21T14:09:39;26.90;91.10
18777;DHT22;9517;51.174;4.160;2022-09-21T14:12:17;27.20;91.90
18777;DHT22;9517;51.174;4.160;2022-09-21T14:15:08;27.00;90.90
18777;DHT22;9517;51.174;4.160;2022-09-21T14:17:38;26.10;92.60
18777;DHT22;9517;51.174;4.160;2022-09-21T14:20:25;25.40;94.10
18777;DHT22;9517;51.174;4.160;2022-09-21T14:23:22;24.10;94.80
18777;DHT22;9517;51.174;4.160;2022-09-21T14:25:52;23.20;96.40
18777;DHT22;9517;51.174;4.160;2022-09-21T14:28:31;22.60;97.50
18777;DHT22;9517;51.174;4.160;2022-09-21T14:31:07;22.30;99.90
18777;DHT22;9517;51.174;4.160;2022-09-21T14:33:43;22.00;99.90
18777;DHT22;9517;51.174;4.160;2022-09-21T14:36:16;21.70;99.60
18777;DHT22;9517;51.174;4.160;2022-09-21T14:38:50;21.50;99.90
18777;DHT22;9517;51.174;4.160;2022-09-21T14:41:22;20.90;99.90
18777;DHT22;9517;51.174;4.160;2022-09-21T14:43:51;20.70;99.90
18777;DHT22;9517;51.174;4.160;2022-09-21T14:46:44;21.00;99.90
18777;DHT22;9517;51.174;4.160;2022-09-21T14:52:23;23.50;99.90
18777;DHT22;9517;51.174;4.160;2022-09-21T14:55:04;24.60;99.30
18777;DHT22;9517;51.174;4.160;2022-09-21T14:57:53;25.40;96.20
18777;DHT22;9517;51.174;4.160;2022-09-21T15:00:36;26.70;94.00
18777;DHT22;9517;51.174;4.160;2022-09-21T15:03:25;27.20;91.10
18777;DHT22;9517;51.174;4.160;2022-09-21T15:06:07;27.00;94.30
18777;DHT22;9517;51.174;4.160;2022-09-21T15:09:01;27.10;92.50
18777;DHT22;9517;51.174;4.160;2022-09-21T15:11:58;28.90;91.60
18777;DHT22;9517;51.174;4.160;2022-09-21T15:14:36;28.30;90.20
18777;DHT22;9517;51.174;4.160;2022-09-21T15:17:21;27.60;91.80
18777;DHT22;9517;51.174;4.160;2022-09-21T15:19:50;28.40;91.10
18777;DHT22;9517;51.174;4.160;2022-09-21T15:22:18;27.80;88.90
18777;DHT22;9517;51.174;4.160;2022-09-21T15:24:50;27.70;88.50
18777;DHT22;9517;51.174;4.160;2022-09-21T15:27:21;27.00;91.50
18777;DHT22;9517;51.174;4.160;2022-09-21T15:29:50;27.00;91.40
18777;DHT22;9517;51.174;4.160;2022-09-21T15:32:28;26.80;91.40
18777;DHT22;9517;51.174;4.160;2022-09-21T15:35:00;26.40;91.20
18777;DHT22;9517;51.174;4.160;2022-09-21T15:37:27;26.50;93.20
18777;DHT22;9517;51.174;4.160;2022-09-21T15:40:02;26.20;92.30
18777;DHT22;9517;51.174;4.160;2022-09-21T15:42:34;26.10;91.60
18777;DHT22;9517;51.174;4.160;2022-09-21T15:45:14;26.00;90.90
18777;DHT22;9517;51.174;4.160;2022-09-21T15:47:44;25.60;93.40
18777;DHT22;9517;51.174;4.160;2022-09-21T15:50:13;25.40;93.80
18777;DHT22;9517;51.174;4.160;2022-09-21T15:52:45;25.00;94.00
18777;DHT22;9517;51.174;4.160;2022-09-21T15:55:16;24.80;94.30
18777;DHT22;9517;51.174;4.160;2022-09-21T15:57:49;24.80;95.80
18777;DHT22;9517;51.174;4.160;2022-09-21T16:00:20;24.90;93.60
18777;DHT22;9517;51.174;4.160;2022-09-21T16:03:15;24.80;95.80
18777;DHT22;9517;51.174;4.160;2022-09-21T16:05:46;24.50;96.50
18777;DHT22;9517;51.174;4.160;2022-09-21T16:08:26;24.80;94.60
18777;DHT22;9517;51.174;4.160;2022-09-21T16:11:11;24.90;99.10
18777;DHT22;9517;51.174;4.160;2022-09-21T16:13:41;24.90;96.30
18777;DHT22;9517;51.174;4.160;2022-09-21T16:16:26;24.60;95.50
18777;DHT22;9517;51.174;4.160;2022-09-21T16:18:55;23.80;98.20
18777;DHT22;9517;51.174;4.160;2022-09-21T16:21:26;23.50;98.70
18777;DHT22;9517;51.174;4.160;2022-09-21T16:23:56;22.90;99.90
18777;DHT22;9517;51.174;4.160;2022-09-21T16:26:33;22.60;99.90
18777;DHT22;9517;51.174;4.160;2022-09-21T16:29:19;22.40;99.80
18777;DHT22;9517;51.174;4.160;2022-09-21T16:31:48;22.00;99.90
18777;DHT22;9517;51.174;4.160;2022-09-21T16:34:33;21.60;99.90
18777;DHT22;9517;51.174;4.160;2022-09-21T16:37:20;21.20;99.90
18777;DHT22;9517;51.174;4.160;2022-09-21T16:39:49;21.00;99.90
18777;DHT22;9517;51.174;4.160;2022-09-21T16:42:16;20.70;99.90
18777;DHT22;9517;51.174;4.160;2022-09-21T16:44:46;20.40;99.90
18777;DHT22;9517;51.174;4.160;2022-09-21T16:47:18;20.20;99.90
18777;DHT22;9517;51.174;4.160;2022-09-21T16:49:50;20.20;99.90